sensor_id;sensor_type;location;lat;lon;timestamp;pressure;altitude;pressure_sealevel;temperature;humidity
49877;BME280;35771;48.978;9.294;2023-01-31T09:01:06;100051.00;;;0.26;100.00
49877;BME280;35771;48.978;9.294;2023-01-31T09:03:33;100068.28;;;0.35;100.00
49877;BME280;35771;48.978;9.294;2023-01-31T09:06:00;100056.81;;;0.33;100.00
49877;BME280;35771;48.978;9.294;2023-01-31T09:08:26;100079.03;;;0.62;100.00
49877;BME280;35771;48.978;9.294;2023-01-31T09:10:53;100084.34;;;0.77;100.00
49877;BME280;35771;48.978;9.294;2023-01-31T09:13:20;100050.44;;;0.90;100.00
49877;BME280;35771;48.978;9.294;2023-01-31T09:15:56;100058.38;;;1.19;100.00
49877;BME280;35771;48.978;9.294;2023-01-31T09:18:24;100066.91;;;1.51;100.00
49877;BME280;35771;48.978;9.294;2023-01-31T09:20:51;100049.13;;;1.63;100.00
49877;BME280;35771;48.978;9.294;2023-01-31T09:23:18;100051.16;;;1.72;100.00
49877;BME280;35771;48.978;9.294;2023-01-31T09:25:50;100060.06;;;1.73;100.00
49877;BME280;35771;48.978;9.294;2023-01-31T09:28:17;100060.41;;;1.81;100.00
49877;BME280;35771;48.978;9.294;2023-01-31T09:30:44;100057.63;;;1.83;100.00
49877;BME280;35771;48.978;9.294;2023-01-31T09:33:10;100032.53;;;1.84;100.00
49877;BME280;35771;48.978;9.294;2023-01-31T09:35:38;100042.03;;;2.13;100.00
49877;BME280;35771;48.978;9.294;2023-01-31T09:38:05;100044.16;;;2.21;100.00
49877;BME280;35771;48.978;9.294;2023-01-31T09:40:33;100036.16;;;2.08;100.00
49877;BME280;35771;48.978;9.294;2023-01-31T09:43:01;100035.94;;;1.99;100.00
49877;BME280;35771;48.978;9.294;2023-01-31T09:45:31;100044.59;;;2.15;100.00
49877;BME280;35771;48.978;9.294;2023-01-31T09:48:00;100059.19;;;2.24;100.00
49877;BME280;35771;48.978;9.294;2023-01-31T09:50:31;100049.22;;;2.26;100.00
49877;BME280;35771;48.978;9.294;2023-01-31T09:53:00;100039.94;;;2.43;100.00
49877;BME280;35771;48.978;9.294;2023-01-31T09:55:33;100054.59;;;2.63;100.00
49877;BME280;35771;48.978;9.294;2023-01-31T09:58:06;100053.19;;;2.57;100.00
49877;BME280;35771;48.978;9.294;2023-01-31T10:00:44;100072.66;;;2.61;100.00
49877;BME280;35771;48.978;9.294;2023-01-31T10:03:24;100049.44;;;2.60;100.00
49877;BME280;35771;48.978;9.294;2023-01-31T10:05:58;100047.00;;;2.57;100.00
49877;BME280;35771;48.978;9.294;2023-01-31T10:08:37;100059.16;;;2.74;100.00
49877;BME280;35771;48.978;9.294;2023-01-31T10:11:10;100048.84;;;2.80;100.00
49877;BME280;35771;48.978;9.294;2023-01-31T10:13:43;100037.47;;;2.77;100.00
49877;BME280;35771;48.978;9.294;2023-01-31T10:16:20;100052.38;;;2.81;100.00
49877;BME280;35771;48.978;9.294;2023-01-31T10:18:51;100038.59;;;2.86;100.00
49877;BME280;35771;48.978;9.294;2023-01-31T10:21:22;100022.22;;;2.77;100.00
49877;BME280;35771;48.978;9.294;2023-01-31T10:23:55;100039.16;;;2.91;100.00
49877;BME280;35771;48.978;9.294;2023-01-31T10:26:26;100042.84;;;2.77;100.00
49877;BME280;35771;48.978;9.294;2023-01-31T10:28:57;100039.81;;;2.81;100.00
49877;BME280;35771;48.978;9.294;2023-01-31T10:31:29;100041.53;;;2.82;100.00
49877;BME280;35771;48.978;9.294;2023-01-31T10:33:59;100058.22;;;2.99;100.00
49877;BME280;35771;48.978;9.294;2023-01-31T10:36:32;100033.59;;;2.81;100.00
49877;BME280;35771;48.978;9.294;2023-01-31T10:39:06;100052.69;;;2.89;100.00
49877;BME280;35771;48.978;9.294;2023-01-31T10:41:44;100069.75;;;3.12;100.00
49877;BME280;35771;48.978;9.294;2023-01-31T10:44:20;100048.28;;;3.12;100.00
49877;BME280;35771;48.978;9.294;2023-01-31T10:46:50;100066.50;;;3.20;100.00
49877;BME280;35771;48.978;9.294;2023-01-31T10:49:19;100059.28;;;3.21;100.00
49877;BME280;35771;48.978;9.294;2023-01-31T10:52:03;100058.75;;;3.40;100.00
49877;BME280;35771;48.978;9.294;2023-01-31T10:54:41;100033.19;;;3.34;100.00
49877;BME280;35771;48.978;9.294;2023-01-31T10:57:14;100059.41;;;3.19;100.00
49877;BME280;35771;48.978;9.294;2023-01-31T10:59:43;100041.13;;;3.00;100.00
49877;BME280;35771;48.978;9.294;2023-01-31T11:02:18;100040.50;;;2.96;100.00
49877;BME280;35771;48.978;9.294;2023-01-31T11:04:48;100030.50;;;2.98;100.00
49877;BME280;35771;48.978;9.294;2023-01-31T11:07:15;100036.91;;;3.09;100.00
49877;BME280;35771;48.978;9.294;2023-01-31T11:09:47;99997.63;;;2.95;100.00
49877;BME280;35771;48.978;9.294;2023-01-31T11:12:16;100006.13;;;3.13;100.00
49877;BME280;35771;48.978;9.294;2023-01-31T11:14:42;100002.41;;;3.03;100.00
49877;BME280;35771;48.978;9.294;2023-01-31T11:17:14;100007.34;;;3.09;100.00
49877;BME280;35771;48.978;9.294;2023-01-31T11:19:44;100001.00;;;3.10;100.00
49877;BME280;35771;48.978;9.294;2023-01-31T11:22:20;99999.56;;;3.17;99.44
49877;BME280;35771;48.978;9.294;2023-01-31T11:24:49;100006.06;;;3.26;98.95
49877;BME280;35771;48.978;9.294;2023-01-31T11:27:24;99988.72;;;3.30;99.11
49877;BME280;35771;48.978;9.294;2023-01-31T11:29:52;99958.16;;;3.19;98.06
49877;BME280;35771;48.978;9.294;2023-01-31T11:32:24;99958.69;;;3.36;96.51
49877;BME280;35771;48.978;9.294;2023-01-31T11:34:56;99971.66;;;3.42;94.87
49877;BME280;35771;48.978;9.294;2023-01-31T11:37:23;99970.16;;;3.38;95.16
49877;BME280;35771;48.978;9.294;2023-01-31T11:39:56;99973.50;;;3.53;93.28
49877;BME280;35771;48.978;9.294;2023-01-31T11:42:23;99969.56;;;3.46;92.93
49877;BME280;35771;48.978;9.294;2023-01-31T11:44:58;99958.56;;;3.38;93.71
49877;BME280;35771;48.978;9.294;2023-01-31T11:47:31;99980.25;;;3.59;94.36
49877;BME280;35771;48.978;9.294;2023-01-31T11:50:00;99975.47;;;3.62;93.11
49877;BME280;35771;48.978;9.294;2023-01-31T11:52:29;99965.78;;;3.48;92.60
49877;BME280;35771;48.978;9.294;2023-01-31T11:54:59;99955.78;;;3.50;92.89
49877;BME280;35771;48.978;9.294;2023-01-31T11:57:30;99957.50;;;3.51;92.28
49877;BME280;35771;48.978;9.294;2023-01-31T12:00:00;99950.78;;;3.57;90.56
49877;BME280;35771;48.978;9.294;2023-01-31T12:02:34;99929.50;;;3.43;89.64
49877;BME280;35771;48.978;9.294;2023-01-31T12:05:07;99920.81;;;3.39;88.31
49877;BME280;35771;48.978;9.294;2023-01-31T12:07:41;99945.03;;;3.62;89.40
49877;BME280;35771;48.978;9.294;2023-01-31T12:13:10;99915.81;;;3.68;88.13
49877;BME280;35771;48.978;9.294;2023-01-31T12:15:44;99888.69;;;3.60;88.42
49877;BME280;35771;48.978;9.294;2023-01-31T12:18:11;99913.13;;;3.91;87.64
49877;BME280;35771;48.978;9.294;2023-01-31T12:20:44;99889.28;;;3.86;87.91
49877;BME280;35771;48.978;9.294;2023-01-31T12:23:25;99919.59;;;4.00;85.78
49877;BME280;35771;48.978;9.294;2023-01-31T12:26:06;99905.28;;;3.99;84.79
49877;BME280;35771;48.978;9.294;2023-01-31T12:28:50;99916.78;;;4.01;83.49
49877;BME280;35771;48.978;9.294;2023-01-31T12:31:43;99905.50;;;4.07;82.88
49877;BME280;35771;48.978;9.294;2023-01-31T12:34:33;99872.03;;;3.89;82.11
49877;BME280;35771;48.978;9.294;2023-01-31T12:37:24;99911.50;;;4.11;83.00
49877;BME280;35771;48.978;9.294;2023-01-31T12:40:05;99913.69;;;4.17;82.83
49877;BME280;35771;48.978;9.294;2023-01-31T12:42:50;99868.63;;;3.87;81.67
49877;BME280;35771;48.978;9.294;2023-01-31T12:45:38;99879.13;;;3.90;81.19
49877;BME280;35771;48.978;9.294;2023-01-31T12:48:35;99870.19;;;3.89;83.20
49877;BME280;35771;48.978;9.294;2023-01-31T12:51:14;99866.41;;;3.81;81.96
49877;BME280;35771;48.978;9.294;2023-01-31T12:53:47;99871.78;;;3.81;81.59
49877;BME280;35771;48.978;9.294;2023-01-31T12:56:42;99866.44;;;3.69;82.29
49877;BME280;35771;48.978;9.294;2023-01-31T12:59:20;99857.28;;;3.61;82.19
49877;BME280;35771;48.978;9.294;2023-01-31T13:01:55;99826.84;;;3.49;83.60
49877;BME280;35771;48.978;9.294;2023-01-31T13:04:32;99855.69;;;3.69;82.90
49877;BME280;35771;48.978;9.294;2023-01-31T13:07:04;99838.19;;;3.64;83.52
49877;BME280;35771;48.978;9.294;2023-01-31T13:09:34;99834.28;;;3.68;84.18
49877;BME280;35771;48.978;9.294;2023-01-31T13:12:05;99822.56;;;3.69;84.36
49877;BME280;35771;48.978;9.294;2023-01-31T13:14:36;99862.50;;;3.85;82.97
49877;BME280;35771;48.978;9.294;2023-01-31T13:17:10;99812.88;;;3.78;82.40
49877;BME280;35771;48.978;9.294;2023-01-31T13:19:42;99809.19;;;3.90;81.15
49877;BME280;35771;48.978;9.294;2023-01-31T13:22:12;99810.75;;;3.93;81.80
49877;BME280;35771;48.978;9.294;2023-01-31T13:24:45;99828.50;;;3.95;81.62
49877;BME280;35771;48.978;9.294;2023-01-31T13:27:17;99831.78;;;3.99;82.00
49877;BME280;35771;48.978;9.294;2023-01-31T13:29:49;99840.53;;;4.12;81.51
49877;BME280;35771;48.978;9.294;2023-01-31T13:32:24;99849.00;;;4.07;80.91
49877;BME280;35771;48.978;9.294;2023-01-31T13:34:57;99841.41;;;4.13;82.01
49877;BME280;35771;48.978;9.294;2023-01-31T13:37:27;99815.75;;;3.97;80.70
49877;BME280;35771;48.978;9.294;2023-01-31T13:39:58;99834.56;;;4.08;81.25
49877;BME280;35771;48.978;9.294;2023-01-31T13:42:26;99857.78;;;4.21;80.24
49877;BME280;35771;48.978;9.294;2023-01-31T13:44:53;99809.78;;;3.94;81.18
49877;BME280;35771;48.978;9.294;2023-01-31T13:47:24;99816.50;;;3.99;80.61
49877;BME280;35771;48.978;9.294;2023-01-31T13:49:54;99800.31;;;4.11;81.22
49877;BME280;35771;48.978;9.294;2023-01-31T13:52:23;99819.16;;;4.11;79.16
49877;BME280;35771;48.978;9.294;2023-01-31T13:54:55;99826.38;;;4.10;79.96
49877;BME280;35771;48.978;9.294;2023-01-31T13:57:26;99795.25;;;3.96;79.71
49877;BME280;35771;48.978;9.294;2023-01-31T14:00:00;99816.00;;;4.05;79.54
49877;BME280;35771;48.978;9.294;2023-01-31T14:02:30;99816.06;;;4.15;79.64
49877;BME280;35771;48.978;9.294;2023-01-31T14:05:04;99797.22;;;4.15;79.91
49877;BME280;35771;48.978;9.294;2023-01-31T14:07:32;99785.53;;;4.05;77.70
49877;BME280;35771;48.978;9.294;2023-01-31T14:13:24;99793.59;;;4.05;77.98
49877;BME280;35771;48.978;9.294;2023-01-31T14:15:53;99756.75;;;3.84;77.61
49877;BME280;35771;48.978;9.294;2023-01-31T14:18:42;99767.97;;;3.89;77.79
49877;BME280;35771;48.978;9.294;2023-01-31T14:21:41;99780.41;;;4.02;78.67
49877;BME280;35771;48.978;9.294;2023-01-31T14:24:18;99761.03;;;3.87;78.52
49877;BME280;35771;48.978;9.294;2023-01-31T14:26:50;99762.09;;;3.96;79.16
49877;BME280;35771;48.978;9.294;2023-01-31T14:29:19;99758.69;;;3.94;78.93
49877;BME280;35771;48.978;9.294;2023-01-31T14:31:48;99798.50;;;4.11;79.71
49877;BME280;35771;48.978;9.294;2023-01-31T14:34:19;99767.34;;;3.97;80.09
49877;BME280;35771;48.978;9.294;2023-01-31T14:37:00;99773.34;;;4.01;80.84
49877;BME280;35771;48.978;9.294;2023-01-31T14:39:54;99791.09;;;3.92;80.64
49877;BME280;35771;48.978;9.294;2023-01-31T14:45:47;99798.38;;;4.01;80.98
49877;BME280;35771;48.978;9.294;2023-01-31T14:48:26;99791.81;;;3.94;82.23
49877;BME280;35771;48.978;9.294;2023-01-31T14:51:05;99798.38;;;4.01;83.27
49877;BME280;35771;48.978;9.294;2023-01-31T14:56:53;99797.31;;;3.93;84.29
49877;BME280;35771;48.978;9.294;2023-01-31T14:59:27;99800.75;;;3.83;85.43
49877;BME280;35771;48.978;9.294;2023-01-31T15:01:55;99789.16;;;3.71;85.07
49877;BME280;35771;48.978;9.294;2023-01-31T15:04:24;99810.94;;;3.80;85.32
49877;BME280;35771;48.978;9.294;2023-01-31T15:06:54;99793.84;;;3.69;86.19
49877;BME280;35771;48.978;9.294;2023-01-31T15:09:34;99792.47;;;3.75;85.97
49877;BME280;35771;48.978;9.294;2023-01-31T15:12:01;99810.06;;;3.79;87.18
49877;BME280;35771;48.978;9.294;2023-01-31T15:14:34;99806.41;;;3.80;87.06
49877;BME280;35771;48.978;9.294;2023-01-31T15:17:09;99797.25;;;3.71;87.33
49877;BME280;35771;48.978;9.294;2023-01-31T15:19:43;99804.22;;;3.74;87.58
49877;BME280;35771;48.978;9.294;2023-01-31T15:22:15;99812.75;;;3.79;88.59
49877;BME280;35771;48.978;9.294;2023-01-31T15:24:45;99780.00;;;3.63;89.45
49877;BME280;35771;48.978;9.294;2023-01-31T15:27:16;99794.91;;;3.78;89.37
49877;BME280;35771;48.978;9.294;2023-01-31T15:29:53;99801.50;;;3.85;89.21
49877;BME280;35771;48.978;9.294;2023-01-31T15:32:23;99798.19;;;3.82;88.69
49877;BME280;35771;48.978;9.294;2023-01-31T15:34:58;99800.75;;;3.83;88.24
49877;BME280;35771;48.978;9.294;2023-01-31T15:37:31;99806.97;;;3.84;89.20
49877;BME280;35771;48.978;9.294;2023-01-31T15:40:02;99798.97;;;3.72;89.71
49877;BME280;35771;48.978;9.294;2023-01-31T15:42:31;99792.75;;;3.72;90.64
49877;BME280;35771;48.978;9.294;2023-01-31T15:45:28;99782.72;;;3.63;90.91
49877;BME280;35771;48.978;9.294;2023-01-31T15:47:59;99781.59;;;3.65;91.01
49877;BME280;35771;48.978;9.294;2023-01-31T15:50:30;99775.50;;;3.63;93.03
49877;BME280;35771;48.978;9.294;2023-01-31T15:53:06;99816.78;;;3.85;95.08
49877;BME280;35771;48.978;9.294;2023-01-31T15:55:39;99814.97;;;3.74;94.27
49877;BME280;35771;48.978;9.294;2023-01-31T15:58:06;99812.16;;;3.64;94.85
49877;BME280;35771;48.978;9.294;2023-01-31T16:00:40;99807.66;;;3.53;95.70
49877;BME280;35771;48.978;9.294;2023-01-31T16:03:17;99794.47;;;3.50;96.09
49877;BME280;35771;48.978;9.294;2023-01-31T16:05:48;99830.13;;;3.64;96.87
49877;BME280;35771;48.978;9.294;2023-01-31T16:08:19;99817.78;;;3.61;96.92
49877;BME280;35771;48.978;9.294;2023-01-31T16:10:47;99786.19;;;3.42;97.27
49877;BME280;35771;48.978;9.294;2023-01-31T16:13:15;99830.63;;;3.58;98.87
49877;BME280;35771;48.978;9.294;2023-01-31T16:15:42;99820.13;;;3.54;97.25
49877;BME280;35771;48.978;9.294;2023-01-31T16:18:10;99808.28;;;3.46;98.61
49877;BME280;35771;48.978;9.294;2023-01-31T16:20:42;99811.34;;;3.41;99.90
49877;BME280;35771;48.978;9.294;2023-01-31T16:23:28;99807.91;;;3.50;98.54
49877;BME280;35771;48.978;9.294;2023-01-31T16:25:59;99798.88;;;3.40;98.47
49877;BME280;35771;48.978;9.294;2023-01-31T16:28:28;99816.72;;;3.52;97.24
49877;BME280;35771;48.978;9.294;2023-01-31T16:31:03;99802.44;;;3.41;98.07
49877;BME280;35771;48.978;9.294;2023-01-31T16:33:30;99809.03;;;3.48;97.76
49877;BME280;35771;48.978;9.294;2023-01-31T16:36:03;99820.72;;;3.58;97.29
49877;BME280;35771;48.978;9.294;2023-01-31T16:38:32;99795.22;;;3.41;97.68
49877;BME280;35771;48.978;9.294;2023-01-31T16:40:59;99831.97;;;3.63;97.23
49877;BME280;35771;48.978;9.294;2023-01-31T16:43:33;99820.47;;;3.61;97.40
49877;BME280;35771;48.978;9.294;2023-01-31T16:46:03;99800.72;;;3.51;97.20
49877;BME280;35771;48.978;9.294;2023-01-31T16:48:33;99828.31;;;3.53;96.62
49877;BME280;35771;48.978;9.294;2023-01-31T16:51:39;99816.09;;;3.49;97.17
49877;BME280;35771;48.978;9.294;2023-01-31T16:54:21;99826.22;;;3.57;97.59
49877;BME280;35771;48.978;9.294;2023-01-31T16:57:05;99837.72;;;3.59;96.75
49877;BME280;35771;48.978;9.294;2023-01-31T16:59:46;99826.47;;;3.53;96.92
49877;BME280;35771;48.978;9.294;2023-01-31T17:02:24;99833.91;;;3.61;95.83
49877;BME280;35771;48.978;9.294;2023-01-31T17:04:53;99839.66;;;3.57;96.21
49877;BME280;35771;48.978;9.294;2023-01-31T17:07:23;99827.94;;;3.58;96.43
49877;BME280;35771;48.978;9.294;2023-01-31T17:09:57;99831.84;;;3.53;96.82
49877;BME280;35771;48.978;9.294;2023-01-31T17:12:25;99836.00;;;3.58;97.67
49877;BME280;35771;48.978;9.294;2023-01-31T17:14:53;99848.97;;;3.64;98.04
49877;BME280;35771;48.978;9.294;2023-01-31T17:17:26;99833.56;;;3.54;98.81
49877;BME280;35771;48.978;9.294;2023-01-31T17:19:54;99842.75;;;3.63;99.38
49877;BME280;35771;48.978;9.294;2023-01-31T17:22:20;99831.13;;;3.51;99.42
49877;BME280;35771;48.978;9.294;2023-01-31T17:24:48;99829.53;;;3.49;100.00
49877;BME280;35771;48.978;9.294;2023-01-31T17:27:17;99824.03;;;3.50;100.00
49877;BME280;35771;48.978;9.294;2023-01-31T17:29:45;99826.34;;;3.55;99.38
49877;BME280;35771;48.978;9.294;2023-01-31T17:32:13;99841.00;;;3.62;98.92
49877;BME280;35771;48.978;9.294;2023-01-31T17:34:40;99822.94;;;3.53;98.62
49877;BME280;35771;48.978;9.294;2023-01-31T17:37:10;99809.50;;;3.53;98.94
49877;BME280;35771;48.978;9.294;2023-01-31T17:39:36;99810.34;;;3.53;98.88
49877;BME280;35771;48.978;9.294;2023-01-31T17:42:04;99834.16;;;3.69;98.92
49877;BME280;35771;48.978;9.294;2023-01-31T17:44:32;99823.03;;;3.74;97.00
49877;BME280;35771;48.978;9.294;2023-01-31T17:46:59;99809.72;;;3.61;96.04
49877;BME280;35771;48.978;9.294;2023-01-31T17:49:25;99817.41;;;3.77;95.55
49877;BME280;35771;48.978;9.294;2023-01-31T17:51:53;99814.59;;;3.79;95.63
49877;BME280;35771;48.978;9.294;2023-01-31T17:54:19;99801.41;;;3.64;95.25
49877;BME280;35771;48.978;9.294;2023-01-31T17:56:46;99780.63;;;3.66;94.81
49877;BME280;35771;48.978;9.294;2023-01-31T17:59:13;99806.91;;;3.74;95.42
49877;BME280;35771;48.978;9.294;2023-01-31T18:01:41;99800.16;;;3.80;95.11
49877;BME280;35771;48.978;9.294;2023-01-31T18:04:07;99791.00;;;3.71;94.08
49877;BME280;35771;48.978;9.294;2023-01-31T18:06:34;99791.00;;;3.71;95.02
49877;BME280;35771;48.978;9.294;2023-01-31T18:09:03;99785.88;;;3.68;94.82
49877;BME280;35771;48.978;9.294;2023-01-31T18:11:30;99819.72;;;3.82;95.34
49877;BME280;35771;48.978;9.294;2023-01-31T18:13:56;99819.59;;;3.83;95.24
49877;BME280;35771;48.978;9.294;2023-01-31T18:16:24;99781.00;;;3.62;95.11
49877;BME280;35771;48.978;9.294;2023-01-31T18:18:53;99804.09;;;3.76;95.60
49877;BME280;35771;48.978;9.294;2023-01-31T18:21:21;99797.38;;;3.70;95.13
49877;BME280;35771;48.978;9.294;2023-01-31T18:23:48;99800.03;;;3.81;94.89
49877;BME280;35771;48.978;9.294;2023-01-31T18:26:15;99800.31;;;3.78;95.09
49877;BME280;35771;48.978;9.294;2023-01-31T18:28:42;99778.53;;;3.70;95.49
49877;BME280;35771;48.978;9.294;2023-01-31T18:31:10;99803.19;;;3.86;95.58
49877;BME280;35771;48.978;9.294;2023-01-31T18:33:40;99778.28;;;3.73;95.78
49877;BME280;35771;48.978;9.294;2023-01-31T18:36:10;99792.94;;;3.80;94.74
49877;BME280;35771;48.978;9.294;2023-01-31T18:38:39;99788.66;;;3.78;95.67
49877;BME280;35771;48.978;9.294;2023-01-31T18:41:07;99800.44;;;3.77;95.73
49877;BME280;35771;48.978;9.294;2023-01-31T18:43:33;99776.72;;;3.70;96.23
49877;BME280;35771;48.978;9.294;2023-01-31T18:46:01;99755.22;;;3.59;96.61
49877;BME280;35771;48.978;9.294;2023-01-31T18:48:28;99780.88;;;3.63;95.94
49877;BME280;35771;48.978;9.294;2023-01-31T18:50:58;99792.94;;;3.80;96.29
49877;BME280;35771;48.978;9.294;2023-01-31T18:53:26;99758.50;;;3.63;96.33
49877;BME280;35771;48.978;9.294;2023-01-31T18:55:57;99808.44;;;3.88;96.79
49877;BME280;35771;48.978;9.294;2023-01-31T18:58:24;99793.91;;;3.79;96.93
49877;BME280;35771;48.978;9.294;2023-01-31T19:00:50;99792.69;;;3.83;97.48
49877;BME280;35771;48.978;9.294;2023-01-31T19:03:17;99775.97;;;3.68;97.86
49877;BME280;35771;48.978;9.294;2023-01-31T19:05:43;99790.75;;;3.85;97.39
49877;BME280;35771;48.978;9.294;2023-01-31T19:08:10;99789.03;;;3.84;97.95
49877;BME280;35771;48.978;9.294;2023-01-31T19:10:38;99767.19;;;3.66;97.58
49877;BME280;35771;48.978;9.294;2023-01-31T19:13:04;99800.16;;;3.80;97.33
49877;BME280;35771;48.978;9.294;2023-01-31T19:15:31;99778.78;;;3.67;97.01
49877;BME280;35771;48.978;9.294;2023-01-31T19:17:57;99804.53;;;3.92;97.10
49877;BME280;35771;48.978;9.294;2023-01-31T19:20:24;99790.13;;;3.82;97.70
49877;BME280;35771;48.978;9.294;2023-01-31T19:22:51;99784.88;;;3.80;98.54
49877;BME280;35771;48.978;9.294;2023-01-31T19:25:17;99779.03;;;3.75;98.35
49877;BME280;35771;48.978;9.294;2023-01-31T19:27:45;99782.56;;;3.76;98.83
49877;BME280;35771;48.978;9.294;2023-01-31T19:30:13;99764.13;;;3.71;99.05
49877;BME280;35771;48.978;9.294;2023-01-31T19:32:39;99770.22;;;3.73;99.12
49877;BME280;35771;48.978;9.294;2023-01-31T19:35:06;99803.81;;;3.90;99.28
49877;BME280;35771;48.978;9.294;2023-01-31T19:37:33;99780.34;;;3.81;99.95
49877;BME280;35771;48.978;9.294;2023-01-31T19:40:00;99769.31;;;3.84;100.00
49877;BME280;35771;48.978;9.294;2023-01-31T19:42:29;99752.66;;;3.69;100.00
49877;BME280;35771;48.978;9.294;2023-01-31T19:44:57;99761.56;;;3.69;100.00
49877;BME280;35771;48.978;9.294;2023-01-31T19:47:23;99755.09;;;3.72;100.00
49877;BME280;35771;48.978;9.294;2023-01-31T19:49:50;99747.53;;;3.66;100.00
49877;BME280;35771;48.978;9.294;2023-01-31T19:52:16;99752.59;;;3.80;100.00
49877;BME280;35771;48.978;9.294;2023-01-31T19:54:43;99748.31;;;3.78;100.00
49877;BME280;35771;48.978;9.294;2023-01-31T19:57:09;99747.28;;;3.69;100.00
49877;BME280;35771;48.978;9.294;2023-01-31T19:59:36;99772.78;;;3.75;100.00
49877;BME280;35771;48.978;9.294;2023-01-31T20:02:04;99779.38;;;3.82;100.00
49877;BME280;35771;48.978;9.294;2023-01-31T20:04:30;99773.16;;;3.70;100.00
49877;BME280;35771;48.978;9.294;2023-01-31T20:06:57;99759.00;;;3.57;100.00
49877;BME280;35771;48.978;9.294;2023-01-31T20:09:23;99783.28;;;3.78;100.00
49877;BME280;35771;48.978;9.294;2023-01-31T20:11:50;99774.03;;;3.70;100.00
49877;BME280;35771;48.978;9.294;2023-01-31T20:14:18;99763.53;;;3.67;100.00
